Terminal Aerodrome Forecast
Issued by NWS Northern Indiana

Home | Current Version | Previous Version | Graphics & Text | Print | Product List | Glossary On
Versions: 1 2 3 4 5 6 7 8 9 10 11 12 13 14 15 16 17 18
000
FTUS43 KIWX 291100 RRA
TAFFWA
TAF
KFWA 291143Z 2912/3012 17011G18KT P6SM BKN080
     FM291600 23014KT 4SM BR VCSH OVC025
     FM291800 26013G22KT 4SM -RA BR OVC009
     FM292000 30015G25KT P6SM VCSH OVC012
     FM300800 34013G22KT P6SM OVC020=

USA.gov is the U.S. government's official web portal to all federal, state and local government web resources and services.